createdAt,value
2018-10-12T00:00:44.058Z,71.31
2018-10-12T00:03:14.147Z,71.09
2018-10-12T00:05:44.058Z,71.99
2018-10-12T00:08:13.789Z,72.27
2018-10-12T00:10:43.501Z,72.05
2018-10-12T00:13:13.159Z,72.95
2018-10-12T00:15:42.921Z,73.11
2018-10-12T00:18:12.539Z,72.89
2018-10-12T00:20:42.145Z,73.14
2018-10-12T00:23:12.834Z,73.86
2018-10-12T00:25:42.354Z,73.24
2018-10-12T00:28:12.177Z,72.90
2018-10-12T00:30:41.978Z,72.87
2018-10-12T00:33:11.617Z,72.31
2018-10-12T00:35:41.254Z,71.33
2018-10-12T00:38:10.932Z,70.14
2018-10-12T00:40:40.555Z,70.36
2018-10-12T00:43:10.107Z,70.58
2018-10-12T00:45:39.842Z,70.57
2018-10-12T00:48:09.629Z,69.65
2018-10-12T00:50:39.304Z,67.98
2018-10-12T00:53:09.045Z,67.22
2018-10-12T00:55:39.249Z,66.75
2018-10-12T00:58:09.150Z,66.24
2018-10-12T01:00:38.958Z,66.26
2018-10-12T01:03:08.555Z,66.61
2018-10-12T01:05:38.121Z,66.83
2018-10-12T01:08:07.840Z,67.26
2018-10-12T01:10:37.720Z,69.46
2018-10-12T01:13:07.463Z,70.68
2018-10-12T01:15:37.213Z,71.46
2018-10-12T01:18:06.720Z,72.25
2018-10-12T01:20:36.665Z,71.95
2018-10-12T01:23:06.423Z,72.23
2018-10-12T01:25:36.306Z,72.63
2018-10-12T01:28:06.558Z,71.70
2018-10-12T01:30:37.263Z,72.35
2018-10-12T01:33:07.564Z,72.69
2018-10-12T01:35:37.352Z,71.63
2018-10-12T01:38:06.909Z,71.20
2018-10-12T01:40:36.441Z,71.27
2018-10-12T01:43:07.200Z,71.38
2018-10-12T01:45:37.101Z,70.89
2018-10-12T01:48:06.639Z,71.16
2018-10-12T01:50:37.244Z,70.11
2018-10-12T01:53:07.192Z,70.36
2018-10-12T01:55:37.267Z,71.28
2018-10-12T01:58:07.752Z,71.15
2018-10-12T02:00:37.602Z,70.79
2018-10-12T02:03:07.329Z,70.75
2018-10-12T02:05:37.084Z,71.12
2018-10-12T02:08:06.911Z,70.69
2018-10-12T02:10:36.506Z,69.77
2018-10-12T02:13:06.152Z,69.42
2018-10-12T02:15:35.652Z,69.69
2018-10-12T02:18:05.447Z,70.20
2018-10-12T02:20:34.954Z,69.24
2018-10-12T02:23:04.563Z,69.19
2018-10-12T02:25:34.413Z,69.14
2018-10-12T02:28:04.162Z,69.33
2018-10-12T02:30:33.764Z,69.08
2018-10-12T02:33:03.503Z,69.82
2018-10-12T02:35:33.072Z,70.61
2018-10-12T02:38:02.633Z,70.66
2018-10-12T02:40:32.333Z,70.31
2018-10-12T02:43:02.013Z,71.14
2018-10-12T02:45:31.718Z,71.17
2018-10-12T02:48:01.348Z,71.02
2018-10-12T02:50:31.052Z,70.47
2018-10-12T02:53:00.787Z,70.41
2018-10-12T02:55:30.434Z,70.89
2018-10-12T02:58:00.099Z,69.65
2018-10-12T03:00:29.765Z,69.90
2018-10-12T03:02:59.308Z,70.89
2018-10-12T03:05:28.858Z,70.68
2018-10-12T03:07:58.598Z,70.01
2018-10-12T03:10:28.329Z,70.20
2018-10-12T03:12:57.969Z,70.94
2018-10-12T03:15:27.761Z,70.92
2018-10-12T03:17:57.501Z,71.12
2018-10-12T03:20:27.281Z,71.20
2018-10-12T03:22:56.909Z,71.53
2018-10-12T03:25:26.752Z,71.75
2018-10-12T03:28:07.281Z,71.46
2018-10-12T03:30:37.558Z,72.88
2018-10-12T03:33:07.509Z,72.41
2018-10-12T03:35:37.210Z,73.04
2018-10-12T03:38:07.117Z,72.95
2018-10-12T03:40:36.663Z,73.54
2018-10-12T03:43:06.243Z,73.79
2018-10-12T03:45:36.021Z,73.90
2018-10-12T03:48:05.729Z,73.88
2018-10-12T03:50:35.460Z,74.76
2018-10-12T03:53:05.442Z,74.91
2018-10-12T03:55:35.200Z,74.74
2018-10-12T03:58:04.957Z,75.06
2018-10-12T04:00:34.778Z,75.55
2018-10-12T04:03:04.752Z,75.69
2018-10-12T04:05:34.601Z,75.79
2018-10-12T04:08:04.208Z,76.87
2018-10-12T04:10:33.856Z,77.08
2018-10-12T04:13:03.467Z,76.59
2018-10-12T04:15:33.238Z,76.30
2018-10-12T04:18:04.257Z,76.35
2018-10-12T04:20:34.141Z,76.47
2018-10-12T04:23:04.455Z,77.04
2018-10-12T04:25:34.298Z,77.37
2018-10-12T04:28:03.976Z,77.52
2018-10-12T04:30:33.593Z,78.02
2018-10-12T04:33:03.337Z,77.90
2018-10-12T04:35:32.839Z,77.62
2018-10-12T04:38:02.608Z,78.08
2018-10-12T04:41:16.842Z,77.62
2018-10-12T04:43:47.603Z,77.89
2018-10-12T04:46:20.900Z,77.75
2018-10-12T04:48:53.177Z,77.82
2018-10-12T04:51:39.202Z,78.20
2018-10-12T04:54:09.108Z,78.17
2018-10-12T04:56:38.900Z,78.28
2018-10-12T04:59:08.813Z,78.68
2018-10-12T05:01:38.614Z,78.45
2018-10-12T05:04:08.401Z,78.46
2018-10-12T05:06:38.138Z,78.51
2018-10-12T05:09:09.594Z,78.59
2018-10-12T05:11:39.530Z,78.74
2018-10-12T05:14:09.640Z,78.36
2018-10-12T05:16:39.332Z,77.52
2018-10-12T05:19:09.230Z,76.45
2018-10-12T05:21:39.610Z,74.31
2018-10-12T05:24:09.895Z,72.72
2018-10-12T05:26:39.659Z,70.98
2018-10-12T05:29:09.220Z,70.01
2018-10-12T05:31:39.185Z,70.37
2018-10-12T05:34:08.821Z,67.82
2018-10-12T05:36:38.516Z,67.92
2018-10-12T05:39:10.903Z,68.83
2018-10-12T05:41:40.557Z,68.83
2018-10-12T05:44:10.342Z,68.30
2018-10-12T05:46:40.238Z,67.99
2018-10-12T05:49:20.768Z,68.03
2018-10-12T05:51:50.637Z,67.75
2018-10-12T05:54:20.607Z,66.51
2018-10-12T05:56:50.510Z,66.47
2018-10-12T05:59:20.424Z,67.13
2018-10-12T06:01:50.111Z,66.14
2018-10-12T06:04:19.941Z,65.25
2018-10-12T06:06:49.621Z,64.23
2018-10-12T06:09:19.443Z,63.99
2018-10-12T06:11:49.160Z,63.35
2018-10-12T06:14:18.860Z,64.11
2018-10-12T06:16:48.492Z,62.84
2018-10-12T06:19:18.060Z,61.84
2018-10-12T06:21:47.586Z,62.34
2018-10-12T06:24:17.477Z,61.20
2018-10-12T06:26:47.406Z,59.57
2018-10-12T06:29:18.674Z,54.67
2018-10-12T06:31:48.477Z,52.09
2018-10-12T06:34:18.089Z,49.40
2018-10-12T06:36:47.608Z,47.50
2018-10-12T06:39:17.464Z,47.82
2018-10-12T06:41:47.833Z,47.58
2018-10-12T06:44:17.588Z,45.20
2018-10-12T06:46:47.607Z,44.51
2018-10-12T06:49:17.109Z,42.83
2018-10-12T06:51:46.794Z,42.72
2018-10-12T06:54:16.335Z,43.26
2018-10-12T06:56:47.833Z,41.84
2018-10-12T06:59:17.887Z,41.81
2018-10-12T07:01:47.652Z,40.67
2018-10-12T07:04:17.197Z,42.09
2018-10-12T07:06:46.876Z,44.03
2018-10-12T07:09:16.673Z,43.48
2018-10-12T07:11:46.374Z,44.90
2018-10-12T07:14:15.852Z,46.25
2018-10-12T07:16:45.487Z,47.13
2018-10-12T07:19:15.314Z,47.03
2018-10-12T07:21:45.086Z,45.08
2018-10-12T07:24:14.811Z,45.16
2018-10-12T07:26:44.732Z,45.47
2018-10-12T07:29:14.344Z,47.42
2018-10-12T07:31:44.004Z,48.88
2018-10-12T07:34:13.792Z,48.06
2018-10-12T07:36:43.435Z,48.23
2018-10-12T07:39:13.151Z,46.80
2018-10-12T07:41:43.030Z,46.07
2018-10-12T07:44:12.822Z,45.85
2018-10-12T07:46:42.427Z,43.86
2018-10-12T07:49:12.101Z,40.94
2018-10-12T07:51:41.714Z,40.38
2018-10-12T07:54:11.399Z,40.79
2018-10-12T07:56:41.025Z,40.13
2018-10-12T07:59:10.816Z,39.17
2018-10-12T08:01:41.551Z,38.89
2018-10-12T08:04:11.816Z,37.88
2018-10-12T08:06:41.407Z,36.34
2018-10-12T08:09:11.251Z,36.77
2018-10-12T08:11:40.843Z,35.21
2018-10-12T08:14:10.791Z,33.90
2018-10-12T08:16:40.270Z,33.16
2018-10-12T08:19:12.991Z,31.11
2018-10-12T08:21:42.791Z,30.92
2018-10-12T08:24:12.763Z,30.70
2018-10-12T08:26:42.538Z,31.95
2018-10-12T08:29:12.323Z,31.36
2018-10-12T08:31:42.095Z,31.73
2018-10-12T08:34:11.807Z,32.30
2018-10-12T08:36:41.592Z,33.19
2018-10-12T08:39:13.055Z,34.97
2018-10-12T08:41:42.893Z,34.85
2018-10-12T08:44:12.545Z,35.11
2018-10-12T08:46:42.193Z,34.81
2018-10-12T08:49:11.790Z,34.94
2018-10-12T08:51:41.522Z,34.98
2018-10-12T08:54:11.316Z,34.60
2018-10-12T08:56:40.960Z,33.16
2018-10-12T08:59:10.740Z,30.49
2018-10-12T09:01:40.580Z,30.47
2018-10-12T09:04:10.142Z,30.10
2018-10-12T09:06:39.951Z,30.73
2018-10-12T09:09:11.316Z,31.83
2018-10-12T09:11:41.651Z,33.69
2018-10-12T09:14:11.259Z,32.30
2018-10-12T09:16:40.867Z,31.42
2018-10-12T09:19:10.657Z,32.79
2018-10-12T09:21:40.449Z,32.77
2018-10-12T09:24:10.156Z,32.04
2018-10-12T09:26:39.740Z,34.79
2018-10-12T09:29:09.494Z,33.06
2018-10-12T09:31:39.104Z,32.33
2018-10-12T09:34:09.388Z,32.13
2018-10-12T09:36:38.977Z,32.44
2018-10-12T09:39:08.955Z,31.04
2018-10-12T09:41:38.732Z,31.56
2018-10-12T09:44:08.472Z,31.79
2018-10-12T09:46:38.177Z,32.02
2018-10-12T09:49:08.244Z,30.75
2018-10-12T09:51:38.651Z,30.25
2018-10-12T09:54:08.287Z,30.95
2018-10-12T09:56:37.887Z,33.30
2018-10-12T09:59:07.710Z,33.60
2018-10-12T10:01:42.343Z,33.26
2018-10-12T10:04:16.983Z,33.78
2018-10-12T10:06:46.698Z,34.49
2018-10-12T10:09:16.202Z,33.05
2018-10-12T10:11:45.887Z,31.94
2018-10-12T10:14:15.507Z,29.88
2018-10-12T10:16:45.176Z,29.39
2018-10-12T10:19:14.877Z,30.17
2018-10-12T10:21:44.656Z,30.92
2018-10-12T10:24:14.323Z,31.36
2018-10-12T10:26:44.072Z,32.44
2018-10-12T10:29:13.860Z,32.63
2018-10-12T10:31:44.009Z,32.06
2018-10-12T10:34:13.648Z,30.52
2018-10-12T10:36:43.535Z,32.04
2018-10-12T10:39:13.965Z,31.15
2018-10-12T10:41:43.637Z,30.90
2018-10-12T10:44:13.318Z,32.66
2018-10-12T10:46:42.921Z,30.96
2018-10-12T10:49:13.620Z,29.35
2018-10-12T10:51:43.211Z,28.34
2018-10-12T10:54:12.975Z,28.19
2018-10-12T10:56:42.546Z,27.83
2018-10-12T10:59:13.299Z,28.20
2018-10-12T11:01:42.964Z,27.56
2018-10-12T11:04:13.252Z,28.27
2018-10-12T11:06:43.010Z,28.33
2018-10-12T11:09:12.805Z,27.28
2018-10-12T11:11:42.609Z,26.74
2018-10-12T11:14:12.205Z,27.13
2018-10-12T11:16:41.757Z,27.29
2018-10-12T11:19:11.564Z,27.04
2018-10-12T11:21:41.164Z,25.87
2018-10-12T11:24:10.954Z,26.25
2018-10-12T11:26:40.815Z,27.25
2018-10-12T11:29:10.501Z,25.61
2018-10-12T11:31:40.468Z,24.04
2018-10-12T11:34:11.038Z,24.97
2018-10-12T11:36:40.803Z,24.36
2018-10-12T11:39:14.651Z,26.22
2018-10-12T11:41:44.467Z,27.64
2018-10-12T11:44:14.175Z,28.43
2018-10-12T11:46:43.725Z,28.59
2018-10-12T11:49:13.343Z,28.05
2018-10-12T11:51:43.106Z,27.06
2018-10-12T11:54:12.779Z,25.25
2018-10-12T11:56:42.458Z,25.89
2018-10-12T11:59:12.018Z,25.17
2018-10-12T12:01:41.712Z,26.89
2018-10-12T12:04:11.408Z,26.54
2018-10-12T12:06:41.176Z,27.82
2018-10-12T12:09:11.212Z,29.22
2018-10-12T12:11:41.080Z,29.49
2018-10-12T12:14:10.980Z,30.46
2018-10-12T12:16:40.664Z,30.79
2018-10-12T12:19:10.332Z,31.58
2018-10-12T12:21:39.915Z,30.89
2018-10-12T12:24:09.647Z,30.49
2018-10-12T12:26:39.416Z,30.52
2018-10-12T12:29:09.096Z,31.07
2018-10-12T12:31:38.926Z,30.94
2018-10-12T12:34:08.515Z,30.71
2018-10-12T12:36:38.051Z,29.83
2018-10-12T12:39:08.837Z,29.68
2018-10-12T12:41:38.633Z,30.67
2018-10-12T12:44:08.293Z,30.35
2018-10-12T12:46:38.039Z,30.75
2018-10-12T12:49:08.132Z,30.22
2018-10-12T12:51:37.574Z,29.77
2018-10-12T12:54:07.120Z,29.28
2018-10-12T12:56:36.752Z,30.20
2018-10-12T12:59:06.396Z,29.93
2018-10-12T13:01:36.282Z,30.20
2018-10-12T13:04:06.096Z,30.60
2018-10-12T13:06:35.982Z,30.72
2018-10-12T13:09:07.017Z,31.42
2018-10-12T13:11:37.421Z,31.12
2018-10-12T13:14:07.254Z,32.04
2018-10-12T13:16:37.038Z,31.04
2018-10-12T13:19:06.676Z,30.96
2018-10-12T13:21:36.294Z,31.10
2018-10-12T13:24:06.282Z,31.35
2018-10-12T13:26:35.916Z,31.40
2018-10-12T13:29:06.127Z,31.58
2018-10-12T13:31:35.858Z,31.18
2018-10-12T13:34:05.508Z,31.00
2018-10-12T13:36:35.268Z,31.30
2018-10-12T13:39:05.959Z,31.58
2018-10-12T13:41:35.658Z,31.24
2018-10-12T13:44:05.523Z,31.36
2018-10-12T13:46:35.147Z,31.87
2018-10-12T13:49:05.060Z,31.67
2018-10-12T13:51:34.879Z,31.24
2018-10-12T13:54:04.744Z,31.53
2018-10-12T13:56:34.487Z,31.74
2018-10-12T13:59:04.385Z,31.80
2018-10-12T14:01:34.061Z,32.50
2018-10-12T14:04:03.686Z,32.28
2018-10-12T14:06:33.450Z,32.49
2018-10-12T14:09:03.396Z,32.68
2018-10-12T14:11:33.244Z,33.37
2018-10-12T14:14:03.447Z,32.98
2018-10-12T14:16:33.142Z,33.21
2018-10-12T14:19:03.260Z,33.63
2018-10-12T14:21:32.896Z,33.74
2018-10-12T14:24:02.461Z,33.13
2018-10-12T14:26:32.263Z,33.39
2018-10-12T14:29:02.087Z,33.27
2018-10-12T14:31:31.782Z,32.78
2018-10-12T14:34:01.400Z,33.41
2018-10-12T14:36:31.348Z,33.19
2018-10-12T14:39:01.037Z,33.90
2018-10-12T14:41:31.058Z,33.31
2018-10-12T14:44:01.068Z,33.14
2018-10-12T14:46:30.666Z,33.65
2018-10-12T14:49:00.496Z,34.06
2018-10-12T14:51:30.566Z,34.18
2018-10-12T14:54:00.535Z,34.25
2018-10-12T14:56:30.104Z,34.43
2018-10-12T14:58:59.788Z,34.98
2018-10-12T15:01:29.659Z,35.23
2018-10-12T15:03:59.669Z,35.30
2018-10-12T15:06:29.729Z,35.61
2018-10-12T15:09:00.383Z,35.63
2018-10-12T15:11:30.287Z,35.63
2018-10-12T15:13:59.894Z,36.01
2018-10-12T15:16:29.674Z,36.83
2018-10-12T15:18:59.361Z,35.93
2018-10-12T15:21:29.465Z,36.01
2018-10-12T15:23:58.906Z,36.65
2018-10-12T15:26:28.784Z,36.79
2018-10-12T15:28:58.591Z,37.89
2018-10-12T15:31:28.534Z,38.21
2018-10-12T15:33:58.333Z,38.31
2018-10-12T15:36:28.560Z,38.07
2018-10-12T15:38:58.369Z,39.23
2018-10-12T15:41:28.172Z,39.94
2018-10-12T15:43:57.806Z,40.67
2018-10-12T15:46:28.549Z,40.05
2018-10-12T15:48:58.465Z,41.00
2018-10-12T15:51:28.322Z,40.50
2018-10-12T15:53:57.981Z,40.36
2018-10-12T15:56:27.547Z,40.53
2018-10-12T15:58:57.297Z,40.35
2018-10-12T16:01:27.101Z,41.21
2018-10-12T16:03:56.801Z,41.41
2018-10-12T16:06:26.500Z,43.21
2018-10-12T16:08:56.418Z,42.23
2018-10-12T16:11:27.373Z,42.02
2018-10-12T16:13:57.709Z,41.77
2018-10-12T16:16:27.531Z,42.34
2018-10-12T16:18:57.328Z,42.09
2018-10-12T16:21:27.571Z,42.91
2018-10-12T16:23:57.385Z,43.66
2018-10-12T16:26:27.120Z,44.90
2018-10-12T16:28:56.926Z,45.62
2018-10-12T16:31:26.885Z,46.17
2018-10-12T16:33:56.561Z,46.16
2018-10-12T16:36:26.342Z,46.00
2018-10-12T16:38:56.167Z,47.14
2018-10-12T16:41:25.929Z,46.83
2018-10-12T16:43:55.703Z,47.00
2018-10-12T16:46:25.470Z,46.91
2018-10-12T16:48:55.657Z,46.78
2018-10-12T16:51:25.526Z,46.85
2018-10-12T16:53:55.172Z,47.43
2018-10-12T16:56:24.888Z,47.93
2018-10-12T16:58:54.639Z,48.43
2018-10-12T17:01:24.431Z,49.17
2018-10-12T17:03:53.945Z,49.36
2018-10-12T17:06:23.700Z,49.36
2018-10-12T17:08:53.638Z,49.66
2018-10-12T17:11:23.264Z,49.96
2018-10-12T17:13:52.857Z,50.04
2018-10-12T17:16:22.666Z,51.29
2018-10-12T17:18:52.153Z,51.83
2018-10-12T17:21:21.931Z,52.45
2018-10-12T17:23:51.754Z,52.24
2018-10-12T17:26:22.396Z,52.39
2018-10-12T17:28:52.193Z,52.05
2018-10-12T17:31:21.803Z,52.75
2018-10-12T17:33:51.437Z,52.48
2018-10-12T17:36:21.061Z,53.12
2018-10-12T17:38:50.814Z,52.58
2018-10-12T17:41:21.435Z,53.48
2018-10-12T17:43:51.141Z,52.27
2018-10-12T17:46:20.980Z,52.38
2018-10-12T17:48:50.589Z,52.57
2018-10-12T17:51:21.155Z,52.25
2018-10-12T17:53:50.851Z,52.91
2018-10-12T17:56:20.373Z,52.68
2018-10-12T17:58:50.119Z,52.42
2018-10-12T18:01:19.791Z,52.58
2018-10-12T18:03:49.562Z,52.59
2018-10-12T18:06:19.165Z,52.31
2018-10-12T18:08:48.919Z,52.76
2018-10-12T18:11:19.372Z,53.00
2018-10-12T18:13:48.995Z,53.44
2018-10-12T18:16:18.860Z,53.73
2018-10-12T18:18:49.039Z,53.99
2018-10-12T18:21:20.614Z,53.93
2018-10-12T18:23:50.189Z,53.74
2018-10-12T18:26:20.027Z,53.99
2018-10-12T18:28:49.863Z,54.02
2018-10-12T18:31:19.585Z,54.48
2018-10-12T18:33:49.444Z,54.26
2018-10-12T18:36:19.322Z,54.62
2018-10-12T18:38:49.171Z,55.28
2018-10-12T18:41:19.177Z,56.28
2018-10-12T18:43:49.939Z,56.20
2018-10-12T18:46:19.767Z,56.85
2018-10-12T18:48:49.430Z,56.89
2018-10-12T18:51:19.294Z,56.81
2018-10-12T18:53:49.074Z,57.49
2018-10-12T18:56:19.641Z,57.79
2018-10-12T18:58:49.390Z,58.01
2018-10-12T19:01:19.212Z,58.29
2018-10-12T19:03:49.355Z,58.85
2018-10-12T19:06:20.315Z,58.63
2018-10-12T19:08:50.360Z,59.32
2018-10-12T19:11:20.412Z,59.66
2018-10-12T19:13:50.599Z,59.03
2018-10-12T19:16:20.601Z,59.29
2018-10-12T19:18:50.410Z,59.15
2018-10-12T19:21:22.163Z,59.63
2018-10-12T19:23:52.285Z,60.05
2018-10-12T19:26:22.306Z,59.74
2018-10-12T19:28:52.547Z,59.21
2018-10-12T19:31:22.489Z,59.04
2018-10-12T19:33:52.656Z,59.89
2018-10-12T19:36:22.548Z,60.46
2018-10-12T19:38:52.543Z,61.03
2018-10-12T19:41:22.600Z,61.55
2018-10-12T19:43:52.642Z,61.36
2018-10-12T19:46:22.708Z,62.05
2018-10-12T19:48:52.635Z,61.79
2018-10-12T19:51:22.675Z,62.93
2018-10-12T19:53:52.787Z,62.73
2018-10-12T19:56:22.844Z,62.10
2018-10-12T19:58:52.842Z,62.13
2018-10-12T20:01:22.828Z,62.00
2018-10-12T20:03:52.650Z,62.10
2018-10-12T20:06:22.296Z,61.70
2018-10-12T20:08:52.149Z,60.84
2018-10-12T20:11:21.835Z,62.37
2018-10-12T20:13:51.476Z,62.86
2018-10-12T20:16:21.245Z,63.62
2018-10-12T20:18:50.977Z,63.21
2018-10-12T20:21:21.313Z,63.82
2018-10-12T20:23:51.410Z,64.61
2018-10-12T20:26:21.324Z,65.03
2018-10-12T20:28:51.216Z,64.73
2018-10-12T20:31:20.993Z,64.69
2018-10-12T20:33:51.453Z,64.84
2018-10-12T20:36:21.129Z,64.63
2018-10-12T20:38:50.997Z,64.83
2018-10-12T20:41:20.725Z,64.68
2018-10-12T20:43:50.469Z,64.41
2018-10-12T20:46:20.141Z,64.65
2018-10-12T20:48:49.698Z,65.09
2018-10-12T20:51:19.356Z,64.99
2018-10-12T20:53:49.144Z,65.24
2018-10-12T20:56:18.836Z,64.69
2018-10-12T20:58:50.821Z,64.16
2018-10-12T21:01:20.548Z,63.39
2018-10-12T21:03:50.348Z,63.69
2018-10-12T21:06:20.123Z,64.22
2018-10-12T21:08:49.873Z,64.68
2018-10-12T21:11:19.661Z,64.19
2018-10-12T21:13:49.269Z,64.29
2018-10-12T21:16:19.091Z,64.62
2018-10-12T21:18:48.835Z,65.05
2018-10-12T21:21:18.591Z,64.65
2018-10-12T21:23:48.193Z,65.50
2018-10-12T21:26:18.040Z,65.62
2018-10-12T21:28:47.904Z,66.90
2018-10-12T21:31:17.699Z,66.74
2018-10-12T21:33:47.259Z,66.62
2018-10-12T21:36:16.871Z,66.90
2018-10-12T21:38:46.344Z,66.97
2018-10-12T21:41:15.994Z,67.48
2018-10-12T21:43:45.615Z,67.48
2018-10-12T21:46:15.109Z,67.61
2018-10-12T21:48:44.891Z,67.93
2018-10-12T21:51:14.587Z,68.45
2018-10-12T21:53:44.316Z,68.56
2018-10-12T21:56:13.908Z,68.78
2018-10-12T21:58:44.282Z,68.77
2018-10-12T22:01:14.026Z,68.78
2018-10-12T22:03:43.764Z,69.65
2018-10-12T22:06:13.551Z,69.62
2018-10-12T22:08:48.383Z,69.14
2018-10-12T22:11:18.119Z,69.06
2018-10-12T22:13:47.849Z,69.41
2018-10-12T22:16:17.331Z,69.55
2018-10-12T22:18:46.988Z,68.85
2018-10-12T22:21:16.585Z,70.31
2018-10-12T22:23:46.287Z,70.39
2018-10-12T22:26:15.984Z,70.29
2018-10-12T22:28:45.774Z,70.83
2018-10-12T22:31:15.489Z,70.38
2018-10-12T22:33:45.160Z,70.48
2018-10-12T22:36:14.875Z,70.20
2018-10-12T22:38:44.426Z,69.14
2018-10-12T22:41:13.987Z,68.67
2018-10-12T22:43:43.739Z,69.70
2018-10-12T22:46:13.712Z,70.09
2018-10-12T22:48:43.426Z,70.70
2018-10-12T22:51:13.140Z,71.44
2018-10-12T22:53:42.756Z,71.55
2018-10-12T22:56:12.383Z,72.04
2018-10-12T22:58:41.937Z,71.55
2018-10-12T23:01:11.798Z,71.58
2018-10-12T23:03:41.429Z,71.78
2018-10-12T23:06:11.732Z,72.53
2018-10-12T23:08:41.334Z,72.54
2018-10-12T23:11:10.802Z,72.60
2018-10-12T23:13:40.348Z,73.04
2018-10-12T23:16:10.088Z,73.37
2018-10-12T23:18:39.872Z,73.26
2018-10-12T23:21:09.503Z,73.21
2018-10-12T23:23:39.290Z,73.63
2018-10-12T23:26:08.866Z,73.64
2018-10-12T23:28:38.396Z,73.50
2018-10-12T23:31:08.635Z,72.83
2018-10-12T23:33:49.199Z,72.47
2018-10-12T23:36:19.261Z,71.62
2018-10-12T23:38:48.867Z,71.12
2018-10-12T23:41:18.502Z,72.12
2018-10-12T23:43:47.941Z,72.41
2018-10-12T23:46:17.715Z,72.31
2018-10-12T23:48:47.297Z,72.07
2018-10-12T23:51:17.094Z,72.34
2018-10-12T23:53:47.746Z,73.03
2018-10-12T23:56:17.532Z,72.68
2018-10-12T23:58:47.707Z,73.31
